EHWO/WOE METAR and TAF weather

Enter ICAO airport designator
Station Type Date Time Source
EHWO METAR 2022/01/29 01:44 UTC NOAA

EHWO 290144Z AUTO 22009KT 1400 DZ OVC002 06/06 Q1028 AMB


Station Type Date Time Source
EHWO Decoded METAR 2022/01/29 01:44 UTC NOAA

Woensdrecht, Netherlands (EHWO) 51-27N 004-20E 17M
Jan 28, 2022 - 08:44 PM EST / 2022.01.29 0144 UTC
Wind: from the SW (220 degrees) at 10 MPH (9 KT):0
Visibility: less than 1 mile:0
Sky conditions: overcast
Weather: drizzle
Temperature: 42 F (6 C)
Dew Point: 42 F (6 C)
Relative Humidity: 100%
Pressure (altimeter): 30.36 in. Hg (1028 hPa)
ob: EHWO 290144Z AUTO 22009KT 1400 DZ OVC002 06/06 Q1028 AMB
cycle: 1

Station Type Date Time Source
EHWO TAF 2022/01/28 14:18 UTC NOAA

TAF TAF EHWO 281302Z 2814/2902 23008KT 9999 FEW015 BKN160
BECMG 2814/2816 24014KT SCT008 BKN012
TEMPO 2815/2822 FEW010 BKN015

Example: see airport list